ΕΜΥ, Εθνική Μετεωρολογική Υπηρεσία - Δελτία Καιρού, Προγνώσεις

ΑΕΡΟΝΑΥΤΙΛΙΑ

GREEK AIRPORTS CODES

LGKY 221400Z 35014KT CAVOK 30/17 Q1008 RMK HAND WIND ANEMOMETER OBSERVATION=

EUROPEAN AIRPORTS CODES

EDDB 221620Z 34005KT 310V010 9999 FEW049 22/15 Q1021 NOSIG=